Tiempo atmosférico en la estación meteorológica de Medina Sidonia, Cádiz (90 m.)



Fecha
DESCASC
Temp. máxima en grados centígrados (hora)
DESCASC
Temp. mínima en grados centígrados (hora)
DESCASC
Temp. media en grados centígrados
DESCASC
Racha de viento máxima en m/sg (hora)
DESCASC
Velocidad máxima media en intervalos de 10 minutos(hora)
DESCASC
Precipitaciones diarias en mm
DESCASC
Precipitaciones de 00:00 a 06:00 en mm
DESCASC
Precipitaciones de 06:00 a 12:00 en mm
DESCASC
Precipitaciones de 12:00 a 18:00 en mm
DESCASC
Precipitaciones de 18:00 a 24:00 en mm
DESCASC
05-04-2020 19.5 (14:10) 13.6 (06:30) 16.6 14.72 (01:40) 10.56 (12:00) 0 0 0 0 0
04-04-2020 16.4 (11:50) 13.5 (00:10) 14.9 21.39 (09:00) 15 (14:00) 0.2 0 0 0.2 0
03-04-2020 20.6 (15:10) 5.4 (08:00) 13 14.72 (19:00) 10.28 (19:40) 0 0 0 0 0
02-04-2020 15.3 (17:40) 8.5 (00:00) 11.9 19.17 (05:50) 7.78 (16:50) 13.4 10 3.4 0 0
01-04-2020 16.8 (17:10) 9.7 (00:00) 13.2 12.5 (18:00) 7.5 (18:00) 5.6 0 0 0 5.6
31-03-2020 17.6 (14:20) 12.1 (00:00) 14.9 12.5 (18:20) 8.06 (18:20) 20.2 6.4 12.4 0.6 0.8
30-03-2020 16.8 (13:40) 6.2 (00:00) 11.5 7.5 (17:30) 5.28 (17:10) 1.6 0 0 0 1.6
29-03-2020 18.5 (14:20) 8.8 (00:00) 13.7 8.33 (17:30) 5.56 (17:20) 0 0 0 0 0
28-03-2020 19 (15:10) 4 (00:00) 11.5 9.72 (16:20) 6.39 (18:10) 1.6 0 0 1.4 0.2
27-03-2020 17.5 (16:10) 5.6 (00:00) 11.5 9.72 (16:40) 6.11 (16:40) 0 0 0 0 0
26-03-2020 18.5 (16:30) 6.9 (00:00) 12.7 11.11 (14:30) 7.5 (15:00) 0 0 0 0 0
25-03-2020 17.2 (15:30) 10.2 (00:00) 13.7 10 (12:00) 7.5 (12:50) 1 0 1 0 0
24-03-2020 14.6 (18:40) 10.6 (00:00) 12.6 5.83 (11:30) 3.06 (23:20) 11.4 0.8 7.8 1.8 1
23-03-2020 18 (14:00) 5.7 (00:00) 11.8 9.17 (17:30) 6.67 (17:30) -- -- -- 0 0
22-03-2020 16.8 (15:30) 7.3 (08:00) 12 7.5 (14:40) 5.28 (16:30) -- -- -- -- --
21-03-2020 14.6 (10:50) 8.4 (00:00) 11.5 11.39 (00:10) 8.06 (00:30) -- -- -- -- --
20-03-2020 17.2 (16:40) 11.5 (00:00) 14.4 16.39 (13:30) 11.11 (13:40) -- -- -- -- --
19-03-2020 17.6 (13:40) 14.8 (00:00) 16.2 26.39 (05:50) 18.33 (05:40) 0 0 0 0 0
18-03-2020 18.8 (13:50) 13.6 (00:00) 16.2 31.11 (12:40) 21.94 (12:40) 7.4 7.4 0 0 0
17-03-2020 16.6 (14:30) 7.7 (00:00) 12.2 16.94 (15:10) 12.78 (14:30) 9 0 4 0 5
16-03-2020 16.4 (15:20) 9.3 (00:00) 12.8 15.56 (16:50) 9.44 (16:10) 0 0 0 0 0
15-03-2020 20.2 (16:00) 11.6 (00:00) 15.9 13.89 (11:40) 10 (11:10) 0 0 0 0 0
14-03-2020 22.5 (15:20) 7.2 (00:00) 14.8 10.83 (20:20) 7.5 (20:30) 0 0 0 0 0
13-03-2020 20.2 (14:40) 10 (01:30) 15.1 6.67 (15:30) 4.17 (19:00) 0 0 0 0 0
12-03-2020 24 (12:50) 11.1 (00:00) 17.6 8.06 (16:40) 5.83 (16:40) 0 0 0 0 0
11-03-2020 25.3 (15:30) 11.6 (00:00) 18.4 15.28 (15:20) 10.56 (15:10) 0 0 0 0 0
10-03-2020 24.4 (13:40) 6.7 (00:00) 15.5 15 (17:30) 11.67 (17:40) 0 0 0 0 0
09-03-2020 23.8 (15:10) 9.5 (00:00) 16.6 11.11 (17:40) 7.78 (17:50) 0 0 0 0 0
08-03-2020 24.1 (17:40) 3.4 (00:00) 13.8 6.94 (15:40) 4.17 (19:20) 0 0 0 0 0

Gráficas

Temp. máximas Temp. mínimas Temp. medias Precipitaciones Rachas de viento máximas Velocidades máximas media en intervalos de 10 minutos

Datos horarios

Fecha y hora oficial Temperatura (ºC) Velocidad del viento (km/h) Dirección del viento Racha (km/h) Dirección de racha Precipitación (mm) Presión (hPa) Tendencia (hPa) Humedad (%)
2020-04-06 23:00:00 12.5 0 Calma 5 Sur 0 -- -- 88
2020-04-06 22:00:00 14 0 Calma 9 Sudeste 0 -- -- 82
2020-04-06 21:00:00 15.5 3 Sudeste 13 Este 0 -- -- 79
2020-04-06 20:00:00 17.4 8 Sudeste 22 Sudeste 0 -- -- 76
2020-04-06 19:00:00 18.9 14 Este 28 Sudeste 0 -- -- 73
2020-04-06 18:00:00 19.2 16 Este 25 Sudeste 0 -- -- 74
2020-04-06 17:00:00 19.4 17 Sudeste 25 Este 0 -- -- 74
2020-04-06 16:00:00 19.3 19 Sudeste 27 Este 0 -- -- 73
2020-04-06 15:00:00 19 19 Este 30 Sudeste 0 -- -- 76
2020-04-06 14:00:00 17.5 19 Sudeste 33 Este 0 -- -- 79
2020-04-06 13:00:00 15.7 21 Este 32 Este 0 -- -- 85
2020-04-06 12:00:00 15 22 Sudeste 29 Este 0.2 -- -- 89
2020-04-06 11:00:00 14.7 18 Sudeste 36 Este 0.2 -- -- 88
2020-04-06 10:00:00 14.9 16 Sudeste 29 Sudeste 0 -- -- 82
2020-04-06 09:00:00 14.2 15 Sudeste 25 Sudeste 0 -- -- 83
2020-04-06 08:00:00 14 19 Sudeste 26 Sudeste 0 -- -- 84
2020-04-06 07:00:00 13.9 12 Sudeste 17 Sudeste 0 -- -- 87
2020-04-06 06:00:00 13.9 10 Sudeste 16 Sudeste 0 -- -- 88
2020-04-06 05:00:00 13.5 7 Sudeste 13 Sudeste 0 -- -- 90
2020-04-06 04:00:00 13.1 6 Sudeste 17 Este 0 -- -- 90
2020-04-06 03:00:00 13.2 6 Sudeste 17 Este 0 -- -- 89
2020-04-06 02:00:00 13.1 7 Sudeste 15 Sudeste 0 -- -- 89
2020-04-06 01:00:00 13.1 6 Sudeste 15 Sudeste 0 -- -- 87
2020-04-06 00:00:00 13.7 6 Sudeste 25 Sudeste 0 -- -- 86
2020-04-05 23:00:00 13.9 9 Sudeste 15 Sudeste 0 -- -- 87
2020-04-05 22:00:00 14.3 5 Sudeste 19 Sudeste 0 -- -- 84
2020-04-05 21:00:00 15 10 Sudeste 22 Sudeste 0 -- -- 82
2020-04-05 20:00:00 16.3 14 Sudeste 29 Este 0 -- -- 79
2020-04-05 19:00:00 17.1 22 Sudeste 36 Este 0 -- -- 75
2020-04-05 18:00:00 18.1 24 Este 40 Este 0 -- -- 72
2020-04-05 17:00:00 18.5 23 Sudeste 42 Este 0 -- -- 71
2020-04-05 16:00:00 19.4 30 Este 42 Este 0 -- -- 68
2020-04-05 15:00:00 19.3 31 Sudeste 45 Este 0 -- -- 68
2020-04-05 14:00:00 19.4 31 Sudeste 49 Este 0 -- -- 65
2020-04-05 13:00:00 19 32 Este 47 Este 0 -- -- 67
2020-04-05 12:00:00 18.1 38 Este 46 Este 0 -- -- 65
2020-04-05 11:00:00 17.2 26 Este 45 Sudeste 0 -- -- 71
2020-04-05 10:00:00 15.7 27 Sudeste 42 Sudeste 0 -- -- 77
2020-04-05 09:00:00 14.4 23 Sudeste 37 Sudeste 0 -- -- 79
2020-04-05 08:00:00 13.7 23 Este 41 Sudeste 0 -- -- 82
2020-04-05 07:00:00 13.8 26 Sudeste 40 Sudeste 0 -- -- 82
2020-04-05 06:00:00 13.8 25 Sudeste 40 Sudeste 0 -- -- 81
2020-04-05 05:00:00 14 27 Sudeste 41 Sudeste 0 -- -- 80
2020-04-05 04:00:00 14.1 30 Sudeste 49 Sudeste 0 -- -- 80
2020-04-05 03:00:00 14.3 33 Este 50 Este 0 -- -- 80
2020-04-05 02:00:00 14.4 35 Sudeste 53 Sudeste 0 -- -- 77
2020-04-05 01:00:00 14.3 32 Sudeste 46 Este 0 -- -- 80
2020-04-05 00:00:00 14.2 26 Sudeste 45 Este 0 -- -- 81
2020-04-04 23:00:00 14.3 32 Sudeste 51 Este 0 -- -- 80
2020-04-04 22:00:00 14.4 30 Sudeste 62 Sudeste 0 -- -- 79
2020-04-04 21:00:00 14.6 35 Este 55 Este 0 -- -- 77
2020-04-04 20:00:00 15.2 38 Este 62 Este 0 -- -- 76
2020-04-04 19:00:00 15.8 40 Este 69 Este 0 -- -- 74
2020-04-04 18:00:00 15.9 46 Este 66 Este 0 -- -- 75
2020-04-04 17:00:00 15.7 40 Este 67 Este 0 -- -- 76
2020-04-04 16:00:00 15.4 45 Este 65 Sudeste 0 -- -- 77
2020-04-04 15:00:00 15 47 Este 74 Sudeste 0 -- -- 79
2020-04-04 14:00:00 14.4 54 Este 74 Este 0.2 -- -- 82
2020-04-04 13:00:00 15 42 Este 63 Este 0 -- -- 79
2020-04-04 12:00:00 16.2 47 Este 63 Este 0 -- -- 71
2020-04-04 11:00:00 15.4 37 Sudeste 57 Sudeste 0 -- -- 72
2020-04-04 10:00:00 14.6 40 Este 73 Este 0 -- -- 73
2020-04-04 09:00:00 14.3 46 Este 77 Este 0 -- -- 72
2020-04-04 08:00:00 14.1 42 Este 71 Este 0 -- -- 74
2020-04-04 07:00:00 13.9 47 Este 66 Sudeste 0 -- -- 74
2020-04-04 06:00:00 13.6 36 Este 64 Sudeste 0 -- -- 76
2020-04-04 05:00:00 13.6 40 Sudeste 73 Sudeste 0 -- -- 76
2020-04-04 04:00:00 13.8 43 Este 63 Este 0 -- -- 74
2020-04-04 03:00:00 13.7 42 Este 69 Este 0 -- -- 74
2020-04-04 02:00:00 13.7 42 Este 70 Este 0 -- -- 75
2020-04-04 01:00:00 13.6 35 Este 60 Sudeste 0 -- -- 73
2020-04-04 00:00:00 13.6 29 Sudeste 45 Sudeste 0 -- -- 76
2020-04-03 23:00:00 13.5 21 Este 34 Este 0 -- -- 78
2020-04-03 22:00:00 13.3 19 Este 37 Este 0 -- -- 70
2020-04-03 21:00:00 14.6 29 Este 47 Este 0 -- -- 62
2020-04-03 20:00:00 16.4 28 Este 51 Este 0 -- -- 59
2020-04-03 19:00:00 17.7 37 Este 53 Este 0 -- -- 53
2020-04-03 18:00:00 18.7 31 Este 46 Este 0 -- -- 53
2020-04-03 17:00:00 19.6 26 Este 36 Este 0 -- -- 58
2020-04-03 16:00:00 19.7 9 Sudoeste 29 Sudeste 0 -- -- 67
2020-04-03 15:00:00 20.3 10 Este 21 Este 0 -- -- 51
2020-04-03 14:00:00 19.6 5 Nordeste 16 Este 0 -- -- 61
2020-04-03 13:00:00 17.9 6 Sudeste 12 Este 0 -- -- 70
2020-04-03 12:00:00 16.1 5 Este 12 Este 0 -- -- 77
2020-04-03 11:00:00 13.6 6 Este 11 Este 0 -- -- 88
2020-04-03 10:00:00 10.6 2 Este 4 Sudeste 0 -- -- 98
2020-04-03 09:00:00 6.5 2 Este 3 Nordeste 0 -- -- 97
2020-04-03 08:00:00 5.4 2 Oeste 4 Este 0 -- -- 96
2020-04-03 07:00:00 6.1 0 Calma 5 Oeste 0 -- -- 96
2020-04-03 06:00:00 6.4 4 Oeste 6 Noroeste 0 -- -- 97
2020-04-03 05:00:00 6.5 2 Este 4 Este 0 -- -- 95
2020-04-03 04:00:00 6.9 0 Calma 3 Nordeste 0 -- -- 95
2020-04-03 03:00:00 7.4 2 Oeste 5 Noroeste 0 -- -- 94
2020-04-03 02:00:00 8 2 Oeste 3 Oeste 0 -- -- 94
2020-04-03 01:00:00 9.2 3 Este 7 Este 0 -- -- 92
2020-04-03 00:00:00 9.9 4 Este 7 Este 0 -- -- 89
2020-04-02 23:00:00 10.6 0 Calma 9 Sudoeste 0 -- -- 87
2020-04-02 22:00:00 10.2 10 Oeste 14 Oeste 0 -- -- 88
2020-04-02 21:00:00 11.7 11 Oeste 22 Oeste 0 -- -- 81
2020-04-02 20:00:00 14.7 14 Oeste 30 Oeste 0 -- -- 64
2020-04-02 19:00:00 14.5 23 Oeste 35 Oeste 0 -- -- 65
2020-04-02 18:00:00 15.2 19 Oeste 35 Noroeste 0 -- -- 65
2020-04-02 17:00:00 14.9 23 Oeste 40 Oeste 0 -- -- 63
2020-04-02 16:00:00 14.6 27 Oeste 43 Noroeste 0 -- -- 67
2020-04-02 15:00:00 14.2 23 Oeste 36 Oeste 0 -- -- 72
2020-04-02 14:00:00 14.7 17 Noroeste 29 Oeste 0 -- -- 62
2020-04-02 13:00:00 13.3 12 Noroeste 19 Noroeste 0 -- -- 71
2020-04-02 12:00:00 12.4 5 Noroeste 19 Oeste 0 -- -- 85
2020-04-02 11:00:00 11.1 5 Este 12 Nordeste 0.2 -- -- 91
2020-04-02 10:00:00 9.9 3 Norte 12 Norte 1 -- -- 96
2020-04-02 09:00:00 9.2 4 Sudeste 11 Sudeste 1.4 -- -- 96
2020-04-02 08:00:00 8.6 0 Calma 6 Nordeste 0 -- -- 95
2020-04-02 07:00:00 9.8 4 Este 14 Noroeste 0.8 -- -- 94
2020-04-02 06:00:00 10.3 11 Noroeste 69 Oeste 7 -- -- 90
2020-04-02 05:00:00 11.7 6 Sudoeste 17 Sudoeste 0.6 -- -- 92
2020-04-02 04:00:00 11.1 9 Sur 21 Sudoeste 1.6 -- -- 92
2020-04-02 03:00:00 11.2 13 Oeste 28 Oeste 0.2 -- -- 87
2020-04-02 02:00:00 11.3 0 Calma 28 Oeste 0.2 -- -- 90
2020-04-02 01:00:00 11.7 5 Sur 23 Sur 0.4 -- -- 89
2020-04-02 00:00:00 11.6 15 Sudoeste 34 Sudoeste 4.4 -- -- 89
2020-04-01 23:00:00 11.7 5 Oeste 19 Noroeste 0.4 -- -- 85
2020-04-01 22:00:00 12 4 Oeste 11 Sudoeste 0 -- -- 86
2020-04-01 21:00:00 12.7 7 Sudoeste 12 Sudoeste 0 -- -- 81
2020-04-01 20:00:00 13.4 9 Oeste 22 Oeste 0 -- -- 77
2020-04-01 19:00:00 13.8 6 Oeste 27 Oeste 0.8 -- -- 83
2020-04-01 18:00:00 13.7 27 Oeste 45 Sudoeste 0 -- -- 76
2020-04-01 17:00:00 16.6 24 Oeste 35 Oeste 0 -- -- 59
2020-04-01 16:00:00 16.2 22 Sudoeste 40 Oeste 0 -- -- 60
2020-04-01 15:00:00 15.8 22 Oeste 34 Sudoeste 0 -- -- 58
2020-04-01 14:00:00 16.6 13 Sudoeste 28 Sudoeste 0 -- -- 56
2020-04-01 13:00:00 15.1 4 Oeste 19 Nordeste 0 -- -- 65
2020-04-01 12:00:00 14.6 8 Nordeste 23 Nordeste 0 -- -- 68
2020-04-01 11:00:00 13.2 9 Norte 19 Noroeste 0 -- -- 71
2020-04-01 10:00:00 11.6 0 Calma 11 Nordeste 0 -- -- 83
2020-04-01 09:00:00 10.5 3 Norte 13 Noroeste 0 -- -- 79
2020-04-01 08:00:00 9.8 6 Noroeste 11 Noroeste 0 -- -- 86
2020-04-01 07:00:00 10.2 3 Noroeste 9 Noroeste 0 -- -- 90
2020-04-01 06:00:00 10.5 4 Noroeste 8 Norte 0 -- -- 93
2020-04-01 05:00:00 10 4 Noroeste 6 Noroeste 0 -- -- 92
2020-04-01 04:00:00 10.9 0 Calma 6 Oeste 0 -- -- 89
2020-04-01 03:00:00 11.7 6 Noroeste 16 Oeste 0 -- -- 89
2020-04-01 02:00:00 11.6 5 Oeste 9 Oeste 0 -- -- 94
2020-04-01 01:00:00 11.3 6 Oeste 8 Oeste 0 -- -- 93
2020-04-01 00:00:00 12.3 3 Sudoeste 5 Sudoeste 0.2 -- -- 90
2020-03-31 23:00:00 13.3 3 Sudoeste 7 Sur 0 -- -- 92
2020-03-31 22:00:00 13.9 5 Sur 9 Sur 0 -- -- 91
2020-03-31 21:00:00 14.2 5 Sudoeste 13 Sudoeste 0 -- -- 87
2020-03-31 20:00:00 14.7 9 Oeste 26 Oeste 0 -- -- 89
2020-03-31 19:00:00 14.4 20 Oeste 45 Oeste 0.6 -- -- 87
2020-03-31 18:00:00 16.9 26 Sudoeste 40 Sudoeste 0 -- -- 76
2020-03-31 17:00:00 16.8 17 Sudoeste 32 Oeste 0 -- -- 80
2020-03-31 16:00:00 16.7 18 Sudoeste 35 Sur 0 -- -- 77
2020-03-31 15:00:00 15.5 15 Sudoeste 41 Sur 0.4 -- -- 88
2020-03-31 14:00:00 17.2 22 Sudoeste 40 Sur 0 -- -- 71
2020-03-31 13:00:00 17.1 19 Sudoeste 38 Oeste 0.2 -- -- 74
2020-03-31 12:00:00 15.2 8 Sudoeste 35 Oeste 2.4 -- -- 88
2020-03-31 11:00:00 15.4 12 Sudoeste 21 Sudoeste 0 -- -- 83
2020-03-31 10:00:00 14.5 9 Sudeste 15 Sur 0 -- -- 93
2020-03-31 09:00:00 13.1 6 Oeste 17 Sudoeste 8.4 -- -- 92
2020-03-31 08:00:00 13.3 8 Sur 22 Sudoeste 1 -- -- 92
2020-03-31 07:00:00 13.6 8 Sudoeste 22 Sur 0.6 -- -- 92
2020-03-31 06:00:00 13.4 7 Sur 24 Sur 0 -- -- 93
2020-03-31 05:00:00 12.8 8 Sur 17 Sur 0 -- -- 94
2020-03-31 04:00:00 12.2 8 Sudoeste 23 Sur 0 -- -- 94
2020-03-31 03:00:00 12.3 12 Sudeste 23 Sudeste 1.8 -- -- 93
2020-03-31 02:00:00 12.2 10 Sur 29 Sudeste 4.6 -- -- 93
2020-03-31 01:00:00 12.8 18 Sudeste 36 Sudeste 0 -- -- 88
2020-03-31 00:00:00 12.9 12 Sudeste 19 Sudeste 0.6 -- -- 91
2020-03-30 23:00:00 13.6 11 Sudeste 15 Este 0.6 -- -- 91
2020-03-30 22:00:00 14.1 2 Sur 9 Sudeste 0.4 -- -- 88
2020-03-30 21:00:00 14.9 5 Sur 12 Sur 0 -- -- 79
2020-03-30 20:00:00 15.4 6 Sudoeste 15 Sudoeste 0 -- -- 76
2020-03-30 19:00:00 16.1 8 Sudoeste 17 Oeste 0 -- -- 69
2020-03-30 18:00:00 16.2 16 Oeste 27 Sudoeste 0 -- -- 72
2020-03-30 17:00:00 16.1 16 Sudoeste 27 Sudoeste 0 -- -- 74
2020-03-30 16:00:00 16.1 17 Sudoeste 27 Oeste 0 -- -- 71
2020-03-30 15:00:00 16.6 15 Sudoeste 25 Sudoeste 0 -- -- 68
2020-03-30 14:00:00 16.6 15 Sudoeste 27 Sudoeste 0 -- -- 70
2020-03-30 13:00:00 16.3 13 Sudoeste 24 Sur 0 -- -- 73
2020-03-30 12:00:00 15.5 8 Sur 17 Sudoeste 0 -- -- 85
2020-03-30 11:00:00 13.1 5 Sudeste 9 Este 0 -- -- 96
2020-03-30 10:00:00 9.7 0 Calma 3 Este 0 -- -- 98
2020-03-30 09:00:00 7.7 0 Calma 3 Este 0 -- -- 97
2020-03-30 08:00:00 7.1 0 Calma 3 Nordeste 0 -- -- 97
2020-03-30 07:00:00 6.9 0 Calma 2 Oeste 0 -- -- 97
2020-03-30 06:00:00 6.2 0 Calma 4 Este 0 -- -- 95
2020-03-30 05:00:00 7.4 2 Noroeste 3 Noroeste 0 -- -- 95
2020-03-30 04:00:00 8 0 Calma 3 Noroeste 0 -- -- 94
2020-03-30 03:00:00 8.7 2 Oeste -- -- 0 -- -- 95
2020-03-30 02:00:00 9.1 0 Calma 5 Nordeste 0 -- -- 92
2020-03-30 01:00:00 10.5 3 Noroeste 6 Noroeste 0 -- -- 90
2020-03-30 00:00:00 10.9 3 Oeste 8 Nordeste 0 -- -- 92
2020-03-29 23:00:00 11.3 3 Oeste 5 Noroeste 0 -- -- 89
2020-03-29 22:00:00 12.5 3 Noroeste 5 Oeste 0 -- -- 85
2020-03-29 21:00:00 14.5 3 Noroeste 17 Oeste 0 -- -- 79
2020-03-29 20:00:00 15.9 9 Oeste 22 Oeste 0 -- -- 75
2020-03-29 19:00:00 16.6 17 Oeste 25 Oeste 0 -- -- 72
2020-03-29 18:00:00 17.7 15 Sudoeste 30 Oeste 0 -- -- 66
2020-03-29 17:00:00 17.9 16 Oeste 23 Sudoeste 0 -- -- 68
2020-03-29 16:00:00 18 5 Sudeste 13 Sudeste 0 -- -- 62
2020-03-29 15:00:00 17.9 9 Sudeste 16 Sudeste 0 -- -- 64
2020-03-29 14:00:00 17.6 10 Sudeste 18 Sudeste 0 -- -- 66
2020-03-29 13:00:00 17.8 10 Este 17 Este 0 -- -- 68
2020-03-29 12:00:00 16.5 10 Sudeste 20 Este 0 -- -- 67
2020-03-29 11:00:00 15.4 15 Este 22 Sudeste 0 -- -- 77
2020-03-29 10:00:00 12.8 4 Este 6 Este 0 -- -- 87
2020-03-29 09:00:00 9.8 2 Noroeste 6 Este 0 -- -- 92
2020-03-29 08:00:00 9 0 Calma 4 Oeste 0 -- -- 92
2020-03-29 07:00:00 9.4 0 Calma 5 Este 0 -- -- 92
2020-03-29 06:00:00 9.8 0 Calma 12 Sudeste 0 -- -- 87
2020-03-29 05:00:00 10.9 13 Sudeste 22 Sudeste 0 -- -- 87
2020-03-29 03:00:00 10.9 5 Este 12 Este 0 -- -- 86
2020-03-29 01:00:00 10.7 4 Este 12 Sudeste 0 -- -- 89
2020-03-29 00:00:00 11.3 4 Sudeste 21 Sudeste 0 -- -- 86
2020-03-28 23:00:00 11.8 16 Sudeste 23 Sudeste 0 -- -- 86
2020-03-28 22:00:00 11.9 9 Sudeste 23 Este 0 -- -- 85
2020-03-28 21:00:00 12.1 18 Este 27 Este 0 -- -- 85
2020-03-28 20:00:00 12.8 11 Sudeste 27 Este 0 -- -- 80
2020-03-28 19:00:00 14.3 15 Sudeste 32 Sudeste 0.2 -- -- 78
2020-03-28 18:00:00 14.7 19 Sudeste 28 Sudeste 0.2 -- -- 79
2020-03-28 17:00:00 15.2 15 Este 35 Sudeste 1.2 -- -- 77
2020-03-28 16:00:00 18 13 Sudeste 26 Sudeste 0 -- -- 57
2020-03-28 15:00:00 18.6 13 Sur 32 Sur 0 -- -- 52
2020-03-28 14:00:00 17.7 12 Sur 23 Sudeste 0 -- -- 58
2020-03-28 13:00:00 17.5 10 Sur 20 Sudoeste 0 -- -- 59
2020-03-28 12:00:00 17.4 8 Sudeste 25 Sudeste 0 -- -- 65
2020-03-28 11:00:00 15.6 9 Sudeste 20 Sudeste 0 -- -- 71
2020-03-28 10:00:00 12.4 5 Este 8 Sudeste 0 -- -- 89
2020-03-28 09:00:00 8.5 2 Oeste 3 Oeste 0 -- -- 98
2020-03-28 08:00:00 5.7 0 Calma 3 Noroeste 0 -- -- 99
2020-03-28 07:00:00 4.4 0 Calma -- -- 0 -- -- 98
2020-03-28 06:00:00 4.3 0 Calma 4 Este 0 -- -- 96
2020-03-28 05:00:00 4.6 0 Calma 3 Oeste 0 -- -- 96
2020-03-28 04:00:00 5.4 0 Calma 4 Nordeste 0 -- -- 96
2020-03-28 03:00:00 5.7 3 Noroeste 7 Nordeste 0 -- -- 96
2020-03-28 02:00:00 5.9 2 Noroeste 6 Nordeste 0 -- -- 94
2020-03-28 01:00:00 7 0 Calma 9 Este 0 -- -- 96
2020-03-28 00:00:00 7.2 2 Noroeste 4 Noroeste 0 -- -- 91
2020-03-27 23:00:00 8.2 2 Este 5 Noroeste 0 -- -- 91
2020-03-27 22:00:00 9.4 0 Calma 6 Noroeste 0 -- -- 87
2020-03-27 21:00:00 10.4 3 Noroeste 6 Oeste 0 -- -- 86
2020-03-27 20:00:00 11.4 6 Oeste 21 Oeste 0 -- -- 83
2020-03-27 19:00:00 14.4 15 Oeste 28 Oeste 0 -- -- 74
2020-03-27 18:00:00 15.5 14 Oeste 30 Oeste 0 -- -- 70
2020-03-27 17:00:00 16.8 19 Oeste 35 Oeste 0 -- -- 59
2020-03-27 16:00:00 17.4 15 Sudoeste 33 Sudoeste 0 -- -- 60
2020-03-27 15:00:00 16.6 16 Oeste 31 Sudoeste 0 -- -- 67
2020-03-27 14:00:00 15.8 6 Noroeste 13 Norte 0 -- -- 74
2020-03-27 13:00:00 15.1 5 Norte 13 Noroeste 0 -- -- 78
2020-03-27 12:00:00 13.6 4 Nordeste 9 Norte 0 -- -- 85
2020-03-27 11:00:00 11.9 3 Este 8 Este 0 -- -- 90
2020-03-27 10:00:00 11.4 4 Sudeste 7 Sudeste 0 -- -- 95
2020-03-27 09:00:00 9.3 0 Calma 6 Este 0 -- -- 98
2020-03-27 08:00:00 7 2 Noroeste 6 Este 0 -- -- 98
2020-03-27 07:00:00 5.7 0 Calma 6 Noroeste 0 -- -- 96
2020-03-27 06:00:00 6.2 0 Calma 5 Noroeste 0 -- -- 94
2020-03-27 05:00:00 7.7 3 Oeste 5 Noroeste 0 -- -- 97
2020-03-27 04:00:00 8.1 0 Calma 9 Este 0 -- -- 94
2020-03-27 03:00:00 9.7 2 Oeste 5 Noroeste 0 -- -- 93
2020-03-27 02:00:00 10.8 3 Oeste 12 Noroeste 0 -- -- 90
2020-03-27 01:00:00 12.5 9 Oeste 17 Oeste 0 -- -- 86
2020-03-27 00:00:00 13.5 14 Oeste 19 Oeste 0 -- -- 89
2020-03-26 23:00:00 13 17 Oeste 21 Oeste 0 -- -- 90
2020-03-26 22:00:00 13.4 15 Oeste 21 Oeste 0 -- -- 90
2020-03-26 21:00:00 13.8 13 Oeste 21 Oeste 0 -- -- 88
2020-03-26 20:00:00 14.2 15 Oeste 26 Oeste 0 -- -- 83
2020-03-26 19:00:00 16.5 22 Oeste 34 Oeste 0 -- -- 65
2020-03-26 18:00:00 17.6 24 Oeste 35 Oeste 0 -- -- 60
2020-03-26 17:00:00 18.3 19 Oeste 33 Oeste 0 -- -- 64
2020-03-26 16:00:00 18 26 Oeste 40 Oeste 0 -- -- 69
2020-03-26 15:00:00 17.9 27 Oeste 40 Oeste 0 -- -- 65
2020-03-26 14:00:00 18.2 23 Oeste 35 Oeste 0 -- -- 72
2020-03-26 13:00:00 17.9 23 Oeste 33 Oeste 0 -- -- 71
2020-03-26 12:00:00 17.4 21 Oeste 31 Sudoeste 0 -- -- 74
2020-03-26 11:00:00 14.9 6 Sudeste 14 Sudoeste 0 -- -- 90
2020-03-26 10:00:00 11.5 4 Sudeste 7 Sudeste 0 -- -- 93
2020-03-26 09:00:00 9.5 4 Este 6 Este 0 -- -- 96
2020-03-26 08:00:00 8.3 3 Este 5 Este 0 -- -- 97
2020-03-26 07:00:00 7.3 0 Calma 4 Oeste 0 -- -- 96
2020-03-26 06:00:00 7.6 2 Nordeste 5 Sudoeste 0 -- -- 94
2020-03-26 05:00:00 8 3 Oeste 4 Oeste 0 -- -- 94
2020-03-26 04:00:00 8.1 2 Norte 5 Nordeste 0 -- -- 94
2020-03-26 03:00:00 8.4 3 Noroeste 5 Oeste 0 -- -- 93
2020-03-26 02:00:00 9.1 2 Oeste 5 Oeste 0 -- -- 93
2020-03-26 01:00:00 9.9 2 Noroeste 5 Sudoeste 0 -- -- 92
2020-03-26 00:00:00 10.3 0 Calma 5 Sudeste 0 -- -- 91
2020-03-25 23:00:00 10.3 0 Calma 4 Sudeste 0 -- -- 90
2020-03-25 22:00:00 10.6 0 Calma 5 Sudeste 0 -- -- 88
2020-03-25 21:00:00 11.2 0 Calma 6 Este 0 -- -- 83
2020-03-25 20:00:00 12.7 2 Sudeste 20 Sudeste 0 -- -- 81
2020-03-25 19:00:00 15 16 Sudeste 24 Sudeste 0 -- -- 71
2020-03-25 18:00:00 16.6 14 Este 28 Este 0 -- -- 67
2020-03-25 17:00:00 16.9 18 Sudeste 32 Este 0 -- -- 64
2020-03-25 16:00:00 16.7 23 Este 36 Este 0 -- -- 69
2020-03-25 15:00:00 16.8 26 Este 33 Este 0 -- -- 69
2020-03-25 14:00:00 15.9 24 Este 32 Este 0 -- -- 73
2020-03-25 13:00:00 16.5 26 Este 35 Este 0 -- -- 66
2020-03-25 12:00:00 14.5 25 Este 36 Este 0 -- -- 79
2020-03-25 11:00:00 13.2 15 Sudeste 28 Este 0 -- -- 86
2020-03-25 10:00:00 13.2 16 Este 23 Este 0.4 -- -- 90
2020-03-25 09:00:00 12.6 9 Este 14 Este 0.4 -- -- 93
2020-03-25 08:00:00 12.4 10 Este 19 Este 0.2 -- -- 93
2020-03-25 07:00:00 12.6 14 Este 18 Este 0 -- -- 91
2020-03-25 06:00:00 12.7 0 Calma 9 Sudeste 0 -- -- 91
2020-03-25 05:00:00 12.6 8 Sudeste 13 Sudeste 0 -- -- 90
2020-03-25 04:00:00 12.2 0 Calma 6 Sur 0 -- -- 92
2020-03-25 03:00:00 11.9 0 Calma 15 Sudeste 0 -- -- 90
2020-03-25 02:00:00 12.4 10 Sudeste 16 Sudeste 0 -- -- 90
2020-03-25 01:00:00 12.6 6 Sudeste 14 Sudeste 0 -- -- 90
2020-03-25 00:00:00 12.4 8 Sudeste 18 Sudeste 0 -- -- 91
2020-03-24 23:00:00 12.8 7 Sudeste 15 Sudeste 0.6 -- -- 92
2020-03-24 22:00:00 12.6 5 Sudeste 9 Sudeste 0.4 -- -- 94
2020-03-24 21:00:00 12.4 2 Oeste 5 Oeste 0 -- -- 93
2020-03-24 20:00:00 13.5 2 Este 5 Oeste 0 -- -- 91
2020-03-24 19:00:00 14.4 2 Oeste 3 Sudoeste 0 -- -- 88
2020-03-24 18:00:00 14.4 0 Calma 5 Noroeste 0 -- -- 86
2020-03-24 17:00:00 13.9 0 Calma 6 Sudeste 0 -- -- 86
2020-03-24 16:00:00 13.7 3 Sudeste 5 Sudeste 0.6 -- -- 90
2020-03-24 15:00:00 13.5 0 Calma 8 Oeste 0.6 -- -- 88
2020-03-24 14:00:00 13 5 Sudoeste 15 Noroeste 0.6 -- -- 90
2020-03-24 13:00:00 13 4 Norte 16 Noroeste 0 -- -- 91
2020-03-24 12:00:00 11.8 8 Noroeste 21 Norte 0.8 -- -- 93
2020-03-24 11:00:00 11.9 6 Norte 13 Oeste 0 -- -- 92
2020-03-24 10:00:00 10.9 3 Oeste 9 Oeste 1.6 -- -- 93
2020-03-24 09:00:00 10.6 5 Noroeste 9 Oeste 3.6 -- -- 94
2020-03-24 08:00:00 10.7 0 Calma 6 Nordeste 1.6 -- -- 93
2020-03-24 07:00:00 10.8 3 Este 7 Oeste 0.2 -- -- 92
2020-03-24 06:00:00 11 6 Oeste 9 Noroeste 0.6 -- -- 89
2020-03-24 05:00:00 11.9 3 Noroeste 12 Noroeste 0.2 -- -- 81
2020-03-24 04:00:00 11.3 4 Noroeste 13 Noroeste 0 -- -- 81
2020-03-24 03:00:00 11.8 6 Noroeste 18 Nordeste 0 -- -- 79
2020-03-24 02:00:00 12.2 3 Norte 15 Nordeste 0 -- -- 81
2020-03-24 01:00:00 12.5 9 Nordeste 17 Nordeste 0 -- -- 80
2020-03-24 00:00:00 12.9 5 Norte 16 Nordeste 0 -- -- 78
2020-03-23 23:00:00 11.7 3 Oeste 9 Oeste 0 -- -- 81
2020-03-23 22:00:00 12.4 3 Nordeste 20 Sudeste 0 -- -- 76
2020-03-23 21:00:00 12.5 10 Sudeste 17 Este 0 -- -- 75
2020-03-23 20:00:00 12.4 5 Este 31 Este 0 -- -- 75
2020-03-23 19:00:00 13.9 23 Este 32 Este 0 -- -- 67
2020-03-23 18:00:00 15.6 20 Este 33 Este 0 -- -- 64
2020-03-23 17:00:00 15.4 23 Este 32 Este 0 -- -- 63
2020-03-23 16:00:00 15.4 6 Este 17 Nordeste 0 -- -- 69
2020-03-23 15:00:00 16.8 14 Este 30 Este 0 -- -- 61
2020-03-23 14:00:00 18 18 Este 30 Este 0 -- -- 58
2020-03-23 13:00:00 16.4 12 Este 19 Este 0 -- -- 62
2020-03-23 12:00:00 16.7 13 Este 23 Este 0 -- -- 61
2020-03-23 11:00:00 15.3 12 Este 24 Este 0 -- -- 72
2020-03-23 10:00:00 13.2 15 Este 23 Este 0 -- -- 81
2020-03-23 09:00:00 8.6 2 Sudoeste 6 Noroeste 0 -- -- 96
2020-03-23 08:00:00 6.1 3 Oeste 5 Oeste 0 -- -- 96
2020-03-23 07:00:00 6 3 Noroeste 6 Noroeste 0 -- -- 96
2020-03-23 06:00:00 6.2 3 Oeste 6 Oeste 0 -- -- 96
2020-03-23 05:00:00 6.7 4 Oeste 8 Noroeste 0 -- -- 97
2020-03-23 04:00:00 6.3 4 Oeste 5 Oeste 0 -- -- 95
2020-03-23 03:00:00 6 4 Oeste 6 Noroeste 0 -- -- 94
2020-03-23 02:00:00 6.6 2 Noroeste 7 Noroeste 0 -- -- 94
2020-03-23 01:00:00 7 2 Noroeste 6 Oeste 0 -- -- 91
2020-03-23 00:00:00 8 0 Calma 5 Oeste 0 -- -- 93
2020-03-22 23:00:00 8.7 4 Oeste 5 Oeste 0 -- -- 87
2020-03-22 22:00:00 10.4 0 Calma 5 Oeste 0 -- -- 84
2020-03-22 21:00:00 10.8 2 Oeste 10 Oeste 0 -- -- 83
2020-03-22 20:00:00 11.5 5 Oeste 13 Noroeste 0 -- -- 82
2020-03-22 19:00:00 14.8 12 Noroeste 20 Oeste 0 -- -- 67
2020-03-22 18:00:00 15.9 13 Oeste 25 Oeste 0 -- -- 63
2020-03-22 17:00:00 16.4 14 Oeste 26 Oeste 0 -- -- 61
2020-03-22 16:00:00 16.1 16 Oeste 27 Oeste 0 -- -- 62
2020-03-22 15:00:00 16.2 15 Oeste 27 Oeste 0 -- -- 61
2020-03-22 14:00:00 15.9 10 Oeste 19 Oeste 0 -- -- 64
2020-03-22 13:00:00 15.3 4 Este 9 Este 0 -- -- 66
2020-03-22 12:00:00 14.3 3 Norte 14 Este 0 -- -- 71
2020-03-22 11:00:00 14.2 6 Sudeste 12 Este 0 -- -- 79
2020-03-22 10:00:00 12.1 4 Este 8 Sudeste 0 -- -- 90
2020-03-22 09:00:00 9.7 2 Este 4 Este 0 -- -- 98
2020-03-22 08:00:00 7.3 3 Oeste 5 Oeste 0 -- -- 95
2020-03-22 07:00:00 7.8 3 Oeste 4 Oeste 0 -- -- 93
2020-03-22 06:00:00 9.2 2 Sudoeste 4 Sudeste 0 -- -- 94
2020-03-22 05:00:00 9.7 3 Sur 8 Sur 0 -- -- 94
2020-03-22 04:00:00 9.8 0 Calma 5 Este 0 -- -- 95
2020-03-22 03:00:00 9.9 3 Sur 6 Sudeste 0 -- -- 94
2020-03-22 02:00:00 9.9 3 Este 9 Sur 0 -- -- 94
2020-03-22 01:00:00 9.9 0 Calma 7 Sudeste 0 -- -- 93
2020-03-22 00:00:00 10 8 Sudeste 19 Sudoeste 0 -- -- 92
2020-03-21 23:00:00 10.3 9 Sudoeste 20 Oeste 0 -- -- 85
2020-03-21 22:00:00 10.5 8 Sur 31 Sudoeste 0 -- -- 86
2020-03-21 21:00:00 11.4 3 Oeste 8 Sudoeste 0 -- -- 83
2020-03-21 20:00:00 12.1 5 Sudoeste 14 Oeste 0 -- -- 81
2020-03-21 19:00:00 13.3 15 Oeste 36 Oeste 0 -- -- 75
2020-03-21 18:00:00 14.3 27 Oeste 40 Oeste 0 -- -- 72
2020-03-21 17:00:00 14.1 14 Sur 31 Sur 0 -- -- 84
2020-03-21 16:00:00 12.6 13 Sur 30 Sudoeste 0 -- -- 90
2020-03-21 15:00:00 11.8 8 Sudeste 32 Sur 0 -- -- 93
2020-03-21 14:00:00 11.9 18 Sudoeste 34 Sudoeste 0 -- -- 88
2020-03-21 13:00:00 11.6 17 Oeste 34 Sudoeste 0 -- -- 88
2020-03-21 12:00:00 13.3 11 Sur 38 Sudoeste 0 -- -- 77
2020-03-21 11:00:00 14.5 17 Sudoeste 30 Sur 0 -- -- 69
2020-03-21 10:00:00 12.9 8 Sudeste 11 Sudeste 0 -- -- 88
2020-03-21 09:00:00 10.5 3 Nordeste 5 Norte 0 -- -- 95
2020-03-21 08:00:00 8.5 2 Este 7 Sudeste 0 -- -- 95
2020-03-21 07:00:00 8.5 5 Este 8 Sudeste 0 -- -- 94
2020-03-21 06:00:00 9.6 2 Oeste 12 Noroeste 0 -- -- 92
2020-03-21 05:00:00 9.1 5 Oeste 15 Oeste 0 -- -- 92
2020-03-21 04:00:00 10.3 6 Noroeste 10 Noroeste 0 -- -- 93
2020-03-21 03:00:00 11.5 0 Calma 11 Noroeste 0 -- -- 91
2020-03-21 02:00:00 12.1 5 Oeste 22 Oeste 0 -- -- 90
2020-03-21 01:00:00 12.4 18 Oeste 41 Oeste 0 -- -- 90
2020-03-21 00:00:00 11.5 23 Oeste 45 Oeste 0 -- -- 91
2020-03-20 23:00:00 13.7 14 Sur 26 Sudeste 0 -- -- 91
2020-03-20 22:00:00 14.5 14 Sudeste 30 Sudeste 0 -- -- 88
2020-03-20 21:00:00 14.7 21 Sudeste 40 Sudeste 0 -- -- 85
2020-03-20 20:00:00 14.7 24 Sudeste 37 Sudeste 0 -- -- 78
2020-03-20 19:00:00 15 26 Sudeste 43 Sudeste 0 -- -- 77
2020-03-20 18:00:00 16 26 Sudeste 45 Sudeste 0 -- -- 75
2020-03-20 17:00:00 16.4 28 Sudeste 45 Sudeste 0 -- -- 73
2020-03-20 16:00:00 16.3 29 Sudeste 48 Este 0 -- -- 75
2020-03-20 15:00:00 16.4 32 Sudeste 48 Este 0 -- -- 75
2020-03-20 14:00:00 16.2 37 Este 59 Este 0 -- -- 74
2020-03-20 13:00:00 15.7 36 Este 51 Este 0 -- -- 78
2020-03-20 12:00:00 15 32 Sudeste 49 Este 0 -- -- 83
2020-03-20 11:00:00 14.8 29 Sudeste 43 Sudeste 0 -- -- 83
2020-03-20 10:00:00 15.4 29 Sudeste 50 Sudeste 0 -- -- 82
2020-03-20 09:00:00 14 28 Sudeste 42 Este 0 -- -- 85
2020-03-20 08:00:00 14.3 24 Sudeste 43 Sudeste 0 -- -- 81
2020-03-20 07:00:00 14 28 Sudeste 42 Sudeste 0 -- -- 82
2020-03-20 06:00:00 13.9 17 Sudeste 38 Sudeste 0 -- -- 84
2020-03-20 05:00:00 14.2 30 Sudeste 46 Este 0 -- -- 79
2020-03-20 04:00:00 14.1 29 Este 41 Este 0 -- -- 79
2020-03-20 03:00:00 14.2 30 Este 46 Este 0 -- -- 78
2020-03-20 02:00:00 14.2 31 Este 51 Sudeste 0 -- -- 77
2020-03-20 01:00:00 14.5 32 Este 52 Sudeste 0 -- -- 72
2020-03-20 00:00:00 14.8 32 Este 60 Este 0 -- -- 74
2020-03-19 23:00:00 15 36 Este 62 Este 0 -- -- 73
2020-03-19 22:00:00 15.1 41 Este 60 Este 0 -- -- 74
2020-03-19 21:00:00 15.1 37 Este 66 Este 0 -- -- 75
2020-03-19 20:00:00 15.2 37 Este 55 Este 0 -- -- 74
2020-03-19 19:00:00 15.6 35 Este 56 Este 0 -- -- 72
2020-03-19 18:00:00 16.2 37 Este 71 Este 0 -- -- 70
2020-03-19 17:00:00 16.6 45 Este 71 Este 0 -- -- 71
2020-03-19 16:00:00 17 51 Este 76 Este 0 -- -- 69
2020-03-19 15:00:00 16.8 47 Este 71 Este 0 -- -- 70
2020-03-19 14:00:00 16.8 49 Este 74 Este 0 -- -- 71
2020-03-19 13:00:00 16.4 46 Este 69 Este 0 -- -- 73
2020-03-19 12:00:00 16.8 44 Este 74 Este 0 -- -- 72
2020-03-19 11:00:00 16.2 41 Este 74 Este 0 -- -- 72
2020-03-19 10:00:00 16.2 42 Este 62 Este 0 -- -- 72
2020-03-19 09:00:00 15.3 34 Este 79 Este 0 -- -- 74
2020-03-19 08:00:00 15.1 50 Este 78 Este 0 -- -- 73
2020-03-19 07:00:00 15.1 46 Este 77 Este 0 -- -- 74
2020-03-19 06:00:00 15.2 61 Este 95 Este 0 -- -- 76
2020-03-19 05:00:00 15.1 42 Este 59 Este 0 -- -- 78
2020-03-19 04:00:00 15.4 40 Este 53 Sudeste 0 -- -- 77
2020-03-19 03:00:00 15.4 31 Sudeste 67 Este 0 -- -- 76
2020-03-19 02:00:00 15.5 47 Este 73 Este 0 -- -- 74
2020-03-19 01:00:00 15.7 44 Sudeste 56 Sudeste 0 -- -- 74
2020-03-19 00:00:00 15.6 35 Sudeste 62 Este 0 -- -- 73
2020-03-18 23:00:00 15.6 38 Este 71 Sudeste 0 -- -- 72
2020-03-18 22:00:00 15.5 47 Este 71 Este 0 -- -- 74
2020-03-18 21:00:00 15.5 40 Este 63 Este 0 -- -- 74
2020-03-18 20:00:00 15.6 45 Este 75 Sudeste 0 -- -- 73
2020-03-18 19:00:00 16 54 Este 86 Sudeste 0 -- -- 69
2020-03-18 18:00:00 16.6 60 Este 95 Este 0 -- -- 67
2020-03-18 17:00:00 17.6 60 Este 99 Este 0 -- -- 65
2020-03-18 16:00:00 17.8 74 Este 104 Este 0 -- -- 65
2020-03-18 15:00:00 18.4 60 Este 99 Este 0 -- -- 65
2020-03-18 14:00:00 18.8 61 Este 107 Este 0 -- -- 64
2020-03-18 13:00:00 18.1 75 Sudeste 112 Este 0 -- -- 66
2020-03-18 12:00:00 17.4 72 Este 106 Sudeste 0 -- -- 68
2020-03-18 11:00:00 16.7 63 Sudeste 91 Este 0 -- -- 71
2020-03-18 10:00:00 16.1 66 Sudeste 99 Sudeste 0 -- -- 75
2020-03-18 09:00:00 15.7 72 Este 99 Sudeste 0 -- -- 76
2020-03-18 08:00:00 15.7 55 Este 78 Sudeste 0 -- -- 75
2020-03-18 07:00:00 15.7 49 Este 85 Este 0 -- -- 75
2020-03-18 06:00:00 15.7 51 Este 81 Este 0 -- -- 75
2020-03-18 05:00:00 15.3 56 Este 83 Este 0 -- -- 78
2020-03-18 04:00:00 15.1 51 Este 75 Este 0 -- -- 80
2020-03-18 03:00:00 15.6 46 Este 67 Este 0 -- -- 79
2020-03-18 02:00:00 15.2 43 Este 67 Este 0.2 -- -- 84
2020-03-18 01:00:00 14.7 39 Este 58 Este 7.2 -- -- 89
2020-03-18 00:00:00 13.6 6 Sudeste 33 Este 3.2 -- -- 92
2020-03-17 23:00:00 14.1 23 Este 55 Este 0 -- -- 84
2020-03-17 22:00:00 13.7 32 Este 53 Este 1.8 -- -- 83
2020-03-17 21:00:00 14.1 24 Este 51 Este 0 -- -- 73
2020-03-17 20:00:00 14.6 32 Este 57 Este 0 -- -- 65
2020-03-17 19:00:00 14.2 27 Este 51 Este 0 -- -- 65
2020-03-17 18:00:00 15.3 32 Este 53 Este 0 -- -- 64
2020-03-17 17:00:00 14.7 34 Este 58 Este 0 -- -- 67
2020-03-17 16:00:00 14.8 37 Este 61 Este 0 -- -- 60
2020-03-17 15:00:00 15.8 45 Este 61 Este 0 -- -- 57
2020-03-17 14:00:00 15 42 Sudeste 60 Este 0 -- -- 58
2020-03-17 13:00:00 15 32 Sudeste 47 Sudeste 0 -- -- 64
2020-03-17 12:00:00 13.2 32 Sudeste 40 Este 0 -- -- 73
2020-03-17 11:00:00 9.4 0 Calma 29 Sudeste 2.2 -- -- 89
2020-03-17 10:00:00 9.2 19 Este 35 Sudeste 1.8 -- -- 88
2020-03-17 09:00:00 10.2 21 Sudeste 35 Sudeste 0 -- -- 83
2020-03-17 08:00:00 9.1 4 Sudeste 12 Sudeste 0 -- -- 84
2020-03-17 07:00:00 8.8 2 Sur 13 Sudeste 0 -- -- 79
2020-03-17 06:00:00 8.1 4 Sudeste 9 Este 0 -- -- 82
2020-03-17 05:00:00 7.7 3 Oeste 7 Noroeste 0 -- -- 85
2020-03-17 04:00:00 8.5 3 Nordeste 13 Nordeste 0 -- -- 80
2020-03-17 03:00:00 9.6 5 Norte 14 Noroeste 0 -- -- 76
2020-03-17 02:00:00 10.1 4 Norte 14 Noroeste 0 -- -- 66
2020-03-17 01:00:00 10.1 2 Noroeste 5 Noroeste 0 -- -- 63
2020-03-17 00:00:00 11.2 0 Calma 6 Norte 0 -- -- 57
2020-03-16 23:00:00 11.9 2 Noroeste 10 Norte 0 -- -- 55
2020-03-16 22:00:00 12.9 4 Norte 23 Norte 0 -- -- 49
2020-03-16 21:00:00 13.7 4 Noroeste 25 Noroeste 0 -- -- 43
2020-03-16 20:00:00 14.3 13 Oeste 37 Oeste 0 -- -- 47
2020-03-16 19:00:00 15.3 27 Oeste 41 Oeste 0 -- -- 42
2020-03-16 18:00:00 15.6 30 Oeste 45 Oeste 0 -- -- 38
2020-03-16 17:00:00 15.9 30 Oeste 56 Oeste 0 -- -- 40
2020-03-16 16:00:00 15.7 30 Oeste 50 Oeste 0 -- -- 42
2020-03-16 15:00:00 15.7 26 Noroeste 44 Oeste 0 -- -- 39
2020-03-16 14:00:00 14.4 23 Oeste 43 Oeste 0 -- -- 49
2020-03-16 13:00:00 14.1 30 Oeste 42 Oeste 0 -- -- 49
2020-03-16 12:00:00 13.7 17 Noroeste 35 Noroeste 0 -- -- 48
2020-03-16 11:00:00 12.4 15 Noroeste 31 Noroeste 0 -- -- 50
2020-03-16 10:00:00 11 20 Noroeste 35 Noroeste 0 -- -- 52
2020-03-16 09:00:00 9.6 18 Noroeste 37 Noroeste 0 -- -- 58
2020-03-16 08:00:00 10.1 18 Noroeste 33 Noroeste 0 -- -- 53
2020-03-16 07:00:00 10.9 14 Noroeste 27 Noroeste 0 -- -- 52
2020-03-16 06:00:00 11.3 14 Noroeste 33 Noroeste 0 -- -- 53
2020-03-16 05:00:00 12.4 12 Noroeste 27 Noroeste 0 -- -- 58
2020-03-16 04:00:00 13.1 10 Noroeste 23 Noroeste 0 -- -- 70
2020-03-16 03:00:00 13.9 12 Noroeste 22 Oeste 0 -- -- 82
2020-03-16 02:00:00 13.8 0 Calma 5 Sudeste 0 -- -- 85
2020-03-16 01:00:00 13.7 3 Noroeste 4 Noroeste 0 -- -- 87
2020-03-16 00:00:00 13.3 0 Calma 5 Noroeste 0 -- -- 86
2020-03-15 23:00:00 12.5 0 Calma 6 Oeste 0 -- -- 89
2020-03-15 22:00:00 12 3 Noroeste 5 Noroeste 0 -- -- 84
2020-03-15 21:00:00 13.5 3 Noroeste 6 Noroeste 0 -- -- 80
2020-03-15 20:00:00 15.3 4 Sudeste 28 Sudeste 0 -- -- 74
2020-03-15 19:00:00 17.2 18 Sudeste 33 Sudeste 0 -- -- 67
2020-03-15 18:00:00 18.8 25 Este 37 Este 0 -- -- 62
2020-03-15 17:00:00 19.6 25 Sudeste 37 Este 0 -- -- 60
2020-03-15 16:00:00 20.2 28 Este 39 Este 0 -- -- 60
2020-03-15 15:00:00 19.3 28 Este 42 Este 0 -- -- 62
2020-03-15 14:00:00 19.6 29 Este 44 Este 0 -- -- 62
2020-03-15 13:00:00 18.9 32 Este 47 Este 0 -- -- 64
2020-03-15 12:00:00 17.9 32 Este 50 Este 0 -- -- 67
2020-03-15 11:00:00 18.1 33 Este 44 Este 0 -- -- 68
2020-03-15 10:00:00 15.7 22 Este 32 Este 0 -- -- 77
2020-03-15 09:00:00 15.3 20 Este 36 Este 0 -- -- 79
2020-03-15 08:00:00 13.7 14 Este 27 Este 0 -- -- 83
2020-03-15 07:00:00 13.9 18 Sudeste 32 Este 0 -- -- 81
2020-03-15 06:00:00 14.2 20 Este 33 Este 0 -- -- 79
2020-03-15 05:00:00 14.3 26 Este 42 Este 0 -- -- 80
2020-03-15 04:00:00 14.2 24 Este 41 Sudeste 0 -- -- 82
2020-03-15 03:00:00 14.2 27 Este 38 Sudeste 0 -- -- 83
2020-03-15 02:00:00 14.2 16 Este 41 Este 0 -- -- 82
2020-03-15 01:00:00 14 25 Este 37 Este 0 -- -- 82
2020-03-15 00:00:00 13.4 14 Este 26 Este 0 -- -- 85
2020-03-14 23:00:00 14.1 14 Sudeste 26 Este 0 -- -- 83
2020-03-14 22:00:00 13.9 15 Este 26 Sudeste 0 -- -- 83
2020-03-14 21:00:00 14.5 22 Sudeste 39 Sudeste 0 -- -- 80
2020-03-14 20:00:00 15.5 21 Sudeste 31 Sudeste 0 -- -- 77
2020-03-14 19:00:00 18.1 19 Sudeste 25 Sudeste 0 -- -- 69
2020-03-14 18:00:00 20.3 16 Sudeste 26 Sudeste 0 -- -- 60
2020-03-14 17:00:00 21.8 13 Sudeste 28 Sudeste 0 -- -- 56
2020-03-14 16:00:00 22.2 10 Sudeste 33 Este 0 -- -- 55
2020-03-14 15:00:00 22 7 Sudeste 26 Este 0 -- -- 54
2020-03-14 14:00:00 21.3 11 Sudeste 29 Sudeste 0 -- -- 58
2020-03-14 13:00:00 19.9 11 Sudeste 19 Sudeste 0 -- -- 62
2020-03-14 12:00:00 18.8 13 Sudeste 27 Sudeste 0 -- -- 68
2020-03-14 11:00:00 17.3 14 Sudeste 21 Sudeste 0 -- -- 74
2020-03-14 10:00:00 13.5 0 Calma 4 Oeste 0 -- -- 93
2020-03-14 09:00:00 9.9 0 Calma 6 Sudoeste 0 -- -- 97
2020-03-14 08:00:00 7.5 0 Calma 4 Oeste 0 -- -- 93
2020-03-14 07:00:00 8.2 3 Sudoeste 8 Este 0 -- -- 93
2020-03-14 06:00:00 9 7 Este 12 Este 0 -- -- 94
2020-03-14 05:00:00 8.1 0 Calma 2 Nordeste 0 -- -- 96
2020-03-14 04:00:00 7.4 0 Calma 3 Este 0 -- -- 94
2020-03-14 03:00:00 8.3 2 Noroeste -- -- 0 -- -- 94
2020-03-14 02:00:00 8.7 0 Calma 4 Noroeste 0 -- -- 91
2020-03-14 01:00:00 9.5 0 Calma 4 Noroeste 0 -- -- 90
2020-03-14 00:00:00 10.4 2 Oeste 6 Oeste 0 -- -- 91
2020-03-13 23:00:00 11.5 4 Noroeste 6 Noroeste 0 -- -- 91
2020-03-13 22:00:00 12.5 2 Noroeste 4 Sur 0 -- -- 86
2020-03-13 21:00:00 13.7 3 Oeste 10 Oeste 0 -- -- 84
2020-03-13 20:00:00 14.5 7 Oeste 19 Oeste 0 -- -- 81
2020-03-13 19:00:00 16.7 15 Oeste 18 Oeste 0 -- -- 73
2020-03-13 18:00:00 17.8 13 Oeste 20 Oeste 0 -- -- 68
2020-03-13 17:00:00 19.2 13 Oeste 23 Sudoeste 0 -- -- 63
2020-03-13 16:00:00 19.6 11 Sudoeste 24 Sudoeste 0 -- -- 63
2020-03-13 15:00:00 20.1 10 Sudoeste 23 Sudoeste 0 -- -- 61
2020-03-13 14:00:00 19.8 9 Sudoeste 21 Sudoeste 0 -- -- 62
2020-03-13 13:00:00 18.6 10 Sudoeste 19 Sudoeste 0 -- -- 66
2020-03-13 12:00:00 17.4 6 Oeste 17 Este 0 -- -- 67
2020-03-13 11:00:00 15.7 7 Sur 15 Sur 0 -- -- 77
2020-03-13 10:00:00 14.7 6 Sudoeste 13 Sudoeste 0 -- -- 80
2020-03-13 09:00:00 13.9 4 Oeste 10 Oeste 0 -- -- 85
2020-03-13 08:00:00 13.1 2 Oeste 6 Noroeste 0 -- -- 92
2020-03-13 07:00:00 13 4 Este 5 Nordeste 0 -- -- 95
2020-03-13 06:00:00 13 2 Este 4 Sudeste 0 -- -- 95
2020-03-13 05:00:00 12.8 2 Este 7 Este 0 -- -- 95
2020-03-13 04:00:00 12.6 4 Este 7 Noroeste 0 -- -- 95
2020-03-13 03:00:00 11.9 3 Este 9 Nordeste 0 -- -- 97
2020-03-13 02:00:00 10.5 3 Nordeste 8 Sudeste 0 -- -- 96
2020-03-13 01:00:00 10.8 5 Noroeste 8 Oeste 0 -- -- 91
2020-03-13 00:00:00 12.2 0 Calma 5 Noroeste 0 -- -- 91
2020-03-12 23:00:00 13 0 Calma 8 Noroeste 0 -- -- 90
2020-03-12 22:00:00 14.3 6 Noroeste 12 Noroeste 0 -- -- 90
2020-03-12 21:00:00 15 4 Noroeste 11 Noroeste 0 -- -- 87
2020-03-12 20:00:00 16.4 7 Noroeste 22 Oeste 0 -- -- 85
2020-03-12 19:00:00 18.3 13 Oeste 22 Oeste 0 -- -- 75
2020-03-12 18:00:00 21.4 12 Oeste 23 Oeste 0 -- -- 58
2020-03-12 17:00:00 22.3 16 Oeste 29 Oeste 0 -- -- 58
2020-03-12 16:00:00 22.9 11 Sudoeste 28 Oeste 0 -- -- 48
2020-03-12 15:00:00 21 18 Sudoeste 27 Oeste 0 -- -- 59
2020-03-12 14:00:00 22.6 10 Sudoeste 22 Oeste 0 -- -- 56
2020-03-12 13:00:00 24 10 Sur 21 Sudeste 0 -- -- 44
2020-03-12 12:00:00 22.5 9 Sur 18 Sur 0 -- -- 49
2020-03-12 11:00:00 20.5 9 Sudeste 14 Sudeste 0 -- -- 57
2020-03-12 10:00:00 17.9 3 Oeste 18 Sur 0 -- -- 68
2020-03-12 09:00:00 15.7 12 Sur 18 Sur 0 -- -- 70
2020-03-12 08:00:00 11.5 5 Nordeste 7 Nordeste 0 -- -- 70
2020-03-12 07:00:00 13.7 4 Nordeste 15 Sur 0 -- -- 61
2020-03-12 06:00:00 14.6 5 Sur 10 Sur 0 -- -- 56
2020-03-12 05:00:00 17.4 5 Sur 18 Sudeste 0 -- -- 46
2020-03-12 04:00:00 17.8 12 Sudeste 20 Sudeste 0 -- -- 45
2020-03-12 03:00:00 16.4 0 Calma 8 Sudeste 0 -- -- 49
2020-03-12 02:00:00 17.2 5 Sudeste 21 Sudeste 0 -- -- 48
2020-03-12 01:00:00 18.2 10 Sudeste 20 Sudeste 0 -- -- 44
2020-03-12 00:00:00 17.3 6 Sudeste 18 Sudeste 0 -- -- 47
2020-03-11 23:00:00 15.3 5 Sudeste 13 Sur 0 -- -- 53
2020-03-11 22:00:00 14.7 3 Noroeste 19 Sudeste 0 -- -- 56
2020-03-11 21:00:00 17.7 15 Sudeste 24 Sudeste 0 -- -- 43
2020-03-11 20:00:00 18.3 9 Nordeste 37 Sudeste 0 -- -- 44
2020-03-11 19:00:00 21.2 26 Sudeste 38 Sudeste 0 -- -- 36
2020-03-11 18:00:00 23.3 22 Sudeste 36 Sudeste 0 -- -- 33
2020-03-11 17:00:00 23.3 21 Sudeste 31 Sudeste 0 -- -- 34
2020-03-11 16:00:00 24.2 10 Sur 55 Sudeste 0 -- -- 33
2020-03-11 15:00:00 24.8 37 Este 53 Sudeste 0 -- -- 31
2020-03-11 14:00:00 23 37 Este 49 Este 0 -- -- 35
2020-03-11 13:00:00 23.4 29 Este 40 Este 0 -- -- 36
2020-03-11 12:00:00 22.1 31 Sudeste 42 Sudeste 0 -- -- 40
2020-03-11 11:00:00 20.3 24 Este 40 Este 0 -- -- 46
2020-03-11 10:00:00 17.9 22 Este 32 Sudeste 0 -- -- 47
2020-03-11 09:00:00 15 15 Sudeste 25 Este 0 -- -- 52
2020-03-11 08:00:00 11.7 12 Este 15 Sudeste 0 -- -- 57
2020-03-11 07:00:00 12.1 9 Sudeste 14 Sudeste 0 -- -- 54
2020-03-11 06:00:00 12.8 3 Sudeste 20 Este 0 -- -- 50
2020-03-11 05:00:00 12.5 13 Este 23 Este 0 -- -- 52
2020-03-11 04:00:00 13.5 4 Sudoeste 15 Sudeste 0 -- -- 49
2020-03-11 03:00:00 14.4 13 Sudeste 19 Sudeste 0 -- -- 47
2020-03-11 02:00:00 14.3 5 Sur 27 Este 0 -- -- 49
2020-03-11 01:00:00 15.4 26 Sudeste 37 Sudeste -- -- -- 46
2020-03-11 00:00:00 16 28 Sudeste 37 Sudeste 0 -- -- 44
2020-03-10 23:00:00 15.4 17 Sudeste 25 Sudeste 0 -- -- 47
2020-03-10 22:00:00 15.6 13 Sudeste 28 Sudeste 0 -- -- 45
2020-03-10 21:00:00 16.4 20 Sudeste 35 Este 0 -- -- 43
2020-03-10 20:00:00 17 28 Sudeste 44 Este 0 -- -- 45
2020-03-10 19:00:00 18.7 33 Sudeste 54 Este 0 -- -- 43
2020-03-10 18:00:00 20.1 36 Este 54 Este 0 -- -- 43
2020-03-10 17:00:00 22 34 Este 48 Este 0 -- -- 44
2020-03-10 16:00:00 23.1 34 Este 49 Este 0 -- -- 40
2020-03-10 15:00:00 23.8 33 Sudeste 47 Este 0 -- -- 35
2020-03-10 14:00:00 24.2 29 Este 41 Este 0 -- -- 34
2020-03-10 13:00:00 23.3 20 Sudeste 28 Este 0 -- -- 40
2020-03-10 12:00:00 20.8 9 Sudeste 16 Sudeste 0 -- -- 48
2020-03-10 11:00:00 17.6 8 Este 13 Sudeste 0 -- -- 73
2020-03-10 10:00:00 13.7 5 Este 8 Este 0 -- -- 75
2020-03-10 09:00:00 9.4 0 Calma 5 Oeste 0 -- -- 85
2020-03-10 08:00:00 6.8 3 Nordeste 7 Nordeste 0 -- -- 86
2020-03-10 07:00:00 7.7 6 Noroeste 8 Noroeste 0 -- -- 85
2020-03-10 06:00:00 8.3 3 Noroeste 11 Sudeste 0 -- -- 80
2020-03-10 05:00:00 9.9 4 Sudeste 12 Noroeste 0 -- -- 75
2020-03-10 04:00:00 10.4 6 Noroeste 13 Nordeste 0 -- -- 75
2020-03-10 03:00:00 11.3 7 Sudeste 14 Norte 0 -- -- 74
2020-03-10 02:00:00 8.5 2 Norte 4 Nordeste 0 -- -- 84
2020-03-10 01:00:00 9.1 0 Calma 4 Nordeste 0 -- -- 83
2020-03-10 00:00:00 10.4 2 Noroeste 6 Oeste 0 -- -- 82
2020-03-09 23:00:00 11.7 2 Sudeste 8 Este 0 -- -- 75
2020-03-09 22:00:00 13.3 4 Este 9 Nordeste 0 -- -- 72
2020-03-09 21:00:00 14.6 12 Oeste 31 Oeste 0 -- -- 66
2020-03-09 20:00:00 16.3 22 Oeste 32 Oeste 0 -- -- 53
2020-03-09 19:00:00 18.4 20 Oeste 31 Oeste 0 -- -- 45
2020-03-09 18:00:00 19.5 27 Oeste 40 Oeste 0 -- -- 45
2020-03-09 17:00:00 20.9 26 Oeste 35 Noroeste 0 -- -- 49
2020-03-09 16:00:00 22.4 22 Oeste 31 Oeste 0 -- -- 41
2020-03-09 15:00:00 23.7 13 Noroeste 30 Noroeste 0 -- -- 29
2020-03-09 14:00:00 22.4 17 Noroeste 33 Noroeste 0 -- -- 34
2020-03-09 13:00:00 21.5 13 Norte 31 Norte 0 -- -- 37
2020-03-09 12:00:00 20.5 12 Norte 28 Noroeste 0 -- -- 46
2020-03-09 11:00:00 18.5 10 Norte 26 Noroeste 0 -- -- 54
2020-03-09 10:00:00 15.9 20 Noroeste 36 Noroeste 0 -- -- 59
2020-03-09 09:00:00 14.9 19 Noroeste 32 Noroeste 0 -- -- 59
2020-03-09 08:00:00 14.8 12 Norte 26 Nordeste 0 -- -- 57
2020-03-09 07:00:00 14.5 9 Norte 21 Norte 0 -- -- 56
2020-03-09 06:00:00 13.9 10 Norte 27 Norte 0 -- -- 53
2020-03-09 05:00:00 12.7 7 Noroeste 30 Norte 0 -- -- 58
2020-03-09 04:00:00 12.4 11 Noroeste 22 Noroeste 0 -- -- 63
2020-03-09 03:00:00 11 3 Nordeste 8 Nordeste 0 -- -- 69
2020-03-09 02:00:00 12.5 5 Norte 15 Noroeste 0 -- -- 68
2020-03-09 01:00:00 11.4 2 Oeste 6 Nordeste 0 -- -- 72
2020-03-09 00:00:00 14.1 4 Norte 16 Oeste 0 -- -- 62
2020-03-08 23:00:00 15.2 6 Noroeste 21 Noroeste 0 -- -- 55
2020-03-08 22:00:00 14.8 12 Oeste 21 Noroeste 0 -- -- 50
2020-03-08 21:00:00 16 3 Norte 14 Noroeste 0 -- -- 47
2020-03-08 20:00:00 17.1 5 Noroeste 20 Oeste 0 -- -- 49
2020-03-08 19:00:00 20.5 14 Oeste 18 Oeste 0 -- -- 49
2020-03-08 18:00:00 23.7 8 Noroeste 15 Nordeste 0 -- -- 30
2020-03-08 17:00:00 23.6 4 Nordeste 17 Nordeste 0 -- -- 30
2020-03-08 16:00:00 23.2 6 Norte 25 Noroeste 0 -- -- 28
2020-03-08 15:00:00 22.2 6 Noroeste 15 Noroeste 0 -- -- 34
2020-03-08 14:00:00 21.7 4 Oeste 15 Sur 0 -- -- 38
2020-03-08 13:00:00 20.4 6 Noroeste 16 Noroeste 0 -- -- 40
2020-03-08 12:00:00 19.2 4 Nordeste 12 Nordeste 0 -- -- 45
2020-03-08 11:00:00 16.9 3 Este 9 Este 0 -- -- 62
2020-03-08 10:00:00 13.2 5 Este 8 Este 0 -- -- 73
2020-03-08 09:00:00 6.7 3 Oeste 6 Oeste 0 -- -- 82
2020-03-08 08:00:00 4.9 2 Noroeste 8 Este 0 -- -- 83
2020-03-08 07:00:00 3.7 4 Oeste 5 Oeste 0 -- -- 89
2020-03-08 06:00:00 3.8 0 Calma 6 Oeste 0 -- -- 87
2020-03-08 05:00:00 5 0 Calma 6 Oeste 0 -- -- 83
2020-03-08 04:00:00 4.2 4 Oeste 5 Noroeste 0 -- -- 86
2020-03-08 03:00:00 5.2 0 Calma 8 Noroeste 0 -- -- 81
2020-03-08 02:00:00 6.2 4 Noroeste 8 Noroeste 0 -- -- 81
2020-03-08 01:00:00 6.6 2 Oeste 9 Noroeste 0 -- -- 79
2020-03-08 00:00:00 7.6 6 Noroeste 8 Oeste 0 -- -- 78